UAAA 231930Z 13002MPS 9999 SCT050CB BKN100 10/07 Q1013 NOSIG
QNH:(hPa/inHg/mmHg)1013 / 29.91 / 760
QFE:(hPa/inHg/mmHg)930 / 27.47 / 698
Temperature10
Dew Point7
Visibility> 10000
Weather
Cloud CoverSCT (5000);
BKN (10000);
Transition Altitude10000 ft.
Transition LevelFL110
SQUAWK